Time;durP1;ratioP1;P1;durP2;ratioP2;P2;SDS_P1;SDS_P2;PMS_P1;PMS_P2;Temp;Humidity;BMP_temperature;BMP_pressure;BME280_temperature;BME280_humidity;BME280_pressure;Samples;Min_cycle;Max_cycle;Signal;HPM_P1;HPM_P2
2021/04/07 00:02:08;;;;;;;33.83;20.47;;;;;;;-1.86;79.26;97904.53;113276;1203;64410;-82
2021/04/07 00:04:35;;;;;;;36.90;21.60;;;;;;;-1.88;79.13;97901.95;113301;1203;64378;-82
2021/04/07 00:07:03;;;;;;;41.05;24.50;;;;;;;-1.89;79.18;97908.09;113254;1202;64429;-82
2021/04/07 00:09:29;;;;;;;37.30;22.35;;;;;;;-1.91;79.15;97906.44;113384;1203;64368;-82
2021/04/07 00:11:57;;;;;;;37.73;21.50;;;;;;;-1.91;79.21;97896.84;113284;1202;64436;-82
2021/04/07 00:14:23;;;;;;;32.75;19.15;;;;;;;-1.91;79.34;97901.22;113313;1202;64391;-82
2021/04/07 00:16:50;;;;;;;34.25;20.05;;;;;;;-1.89;79.46;97904.64;113333;1203;64375;-82
2021/04/07 00:19:17;;;;;;;30.50;19.15;;;;;;;-1.91;79.39;97902.06;113370;1203;64433;-82
2021/04/07 00:21:43;;;;;;;28.87;21.03;;;;;;;-1.90;79.21;97900.30;113251;1202;64483;-82
2021/04/07 00:24:10;;;;;;;26.77;20.20;;;;;;;-1.88;79.42;97908.95;113363;1203;64449;-81
2021/04/07 00:26:37;;;;;;;24.23;17.70;;;;;;;-1.85;79.26;97903.61;113381;1202;64404;-82
2021/04/07 00:29:04;;;;;;;27.77;19.93;;;;;;;-1.83;78.90;97909.64;113511;1202;64806;-83
2021/04/07 00:31:30;;;;;;;27.70;18.53;;;;;;;-1.83;78.95;97909.64;113529;1202;64423;-83
2021/04/07 00:33:57;;;;;;;30.03;19.43;;;;;;;-1.84;78.92;97907.95;113468;1202;64426;-84
2021/04/07 00:36:23;;;;;;;25.47;17.23;;;;;;;-1.84;79.06;97907.95;113424;1202;64522;-83
2021/04/07 00:38:50;;;;;;;26.15;16.85;;;;;;;-1.85;78.84;97914.90;113413;1203;64452;-82
2021/04/07 00:41:17;;;;;;;23.93;16.47;;;;;;;-1.84;79.01;97913.17;113604;1203;64400;-84
2021/04/07 00:43:43;;;;;;;24.90;16.30;;;;;;;-1.85;78.73;97907.06;113643;1203;64372;-83
2021/04/07 00:46:10;;;;;;;25.65;16.80;;;;;;;-1.86;78.70;97913.20;113425;1202;64365;-82
2021/04/07 00:48:37;;;;;;;23.50;16.95;;;;;;;-1.85;78.75;97916.66;113383;1202;64452;-83
2021/04/07 00:51:05;;;;;;;22.07;16.83;;;;;;;-1.85;78.54;97911.45;113332;1202;64404;-82
2021/04/07 00:53:31;;;;;;;21.47;15.03;;;;;;;-1.84;78.69;97926.22;113422;1203;64413;-83
2021/04/07 00:55:58;;;;;;;22.85;15.50;;;;;;;-1.86;78.56;97921.05;113416;1203;64352;-85
2021/04/07 00:58:25;;;;;;;22.15;15.80;;;;;;;-1.86;78.69;97918.43;113464;1203;64557;-81
2021/04/07 01:00:53;;;;;;;22.97;15.70;;;;;;;-1.82;78.80;97924.39;113360;1203;64503;-82
2021/04/07 01:03:20;;;;;;;20.15;14.90;;;;;;;-1.81;78.72;97921.73;113355;1202;64397;-82
2021/04/07 01:05:47;;;;;;;21.25;15.00;;;;;;;-1.81;78.82;97921.73;113282;1203;64436;-82
2021/04/07 01:08:14;;;;;;;22.45;15.65;;;;;;;-1.79;78.56;97917.32;113250;1203;64426;-83
2021/04/07 01:10:41;;;;;;;21.23;16.80;;;;;;;-1.79;78.45;97914.71;113258;1202;64420;-83
2021/04/07 01:13:07;;;;;;;25.00;14.20;;;;;;;-1.78;78.13;97919.02;113318;1203;64353;-83
2021/04/07 01:15:34;;;;;;;21.35;16.05;;;;;;;-1.79;78.46;97919.94;113325;1203;64391;-84
2021/04/07 01:18:01;;;;;;;20.10;14.90;;;;;;;-1.82;78.48;97922.66;113345;1202;64349;-83
2021/04/07 01:20:27;;;;;;;24.10;15.80;;;;;;;-1.82;78.43;97919.16;113345;1203;64362;-82
2021/04/07 01:23:03;;;;;;;23.85;16.30;;;;;;;-1.85;78.45;97925.34;113245;1203;64323;-82
2021/04/07 01:25:30;;;;;;;19.65;15.10;;;;;;;-1.85;78.50;97930.57;113339;1202;64416;-82
2021/04/07 01:27:59;;;;;;;21.95;15.80;;;;;;;-1.85;78.57;97927.95;113292;1202;64330;-82
2021/04/07 01:30:25;;;;;;;22.70;16.45;;;;;;;-1.87;78.35;97926.30;113284;1202;64316;-82
2021/04/07 01:32:52;;;;;;;20.73;15.77;;;;;;;-1.88;78.43;97925.45;113257;1203;64500;-82
2021/04/07 01:35:20;;;;;;;22.30;16.40;;;;;;;-1.89;78.38;97934.20;113247;1203;64403;-82
2021/04/07 01:37:46;;;;;;;24.93;18.00;;;;;;;-1.91;78.61;97929.94;113296;1203;64387;-82
2021/04/07 01:40:17;;;;;;;26.35;18.35;;;;;;;-1.92;78.46;97939.54;113250;1203;64407;-82
2021/04/07 01:42:46;;;;;;;22.80;16.10;;;;;;;-1.94;78.74;97935.27;113317;1202;64336;-82
2021/04/07 01:45:13;;;;;;;22.37;16.37;;;;;;;-1.98;78.45;97929.28;113365;1203;64337;-82
2021/04/07 01:47:40;;;;;;;24.30;16.50;;;;;;;-1.99;78.69;97931.05;113241;1203;64516;-82
2021/04/07 01:50:08;;;;;;;21.70;17.23;;;;;;;-1.98;78.68;97937.11;113347;1203;64419;-82
2021/04/07 01:52:35;;;;;;;25.73;20.77;;;;;;;-1.99;78.79;97932.81;113358;1203;64407;-82
2021/04/07 01:55:03;;;;;;;28.90;22.57;;;;;;;-1.99;78.41;97928.44;113315;1203;64397;-82
2021/04/07 01:57:29;;;;;;;33.40;23.85;;;;;;;-1.97;78.71;97928.39;113296;1202;64394;-82
2021/04/07 01:59:56;;;;;;;27.60;21.30;;;;;;;-1.97;78.53;97936.23;113248;1203;64471;-82
2021/04/07 02:02:22;;;;;;;25.15;20.10;;;;;;;-1.97;78.63;97941.45;113355;1203;64500;-81
2021/04/07 02:04:49;;;;;;;28.50;20.53;;;;;;;-2.00;78.34;97937.19;113279;1203;64452;-81
2021/04/07 02:07:18;;;;;;;25.73;19.07;;;;;;;-1.98;78.61;97929.28;113328;1203;64451;-82
2021/04/07 02:09:45;;;;;;;27.90;19.50;;;;;;;-1.99;78.38;97940.64;113319;1203;64423;-82
2021/04/07 02:12:13;;;;;;;24.53;18.93;;;;;;;-2.03;78.55;97939.02;113233;1203;64419;-82
2021/04/07 02:14:39;;;;;;;27.77;19.73;;;;;;;-2.05;78.36;97940.86;113234;1203;64400;-82
2021/04/07 02:17:06;;;;;;;25.40;19.35;;;;;;;-2.08;78.53;97947.03;113295;1203;64474;-82
2021/04/07 02:19:35;;;;;;;27.30;18.90;;;;;;;-2.11;78.47;97946.26;113314;1202;64449;-82
2021/04/07 02:22:13;;;;;;;25.33;19.40;;;;;;;-2.11;78.23;97949.71;113407;1203;64323;-83
2021/04/07 02:24:44;;;;;;;23.95;18.40;;;;;;;-2.13;78.48;97946.33;113511;1202;64352;-81
2021/04/07 02:27:19;;;;;;;27.30;20.05;;;;;;;-2.21;78.35;97943.12;113336;1203;64462;-83
2021/04/07 02:29:49;;;;;;;27.27;19.30;;;;;;;-2.27;78.37;97944.14;113287;1203;64381;-83
2021/04/07 02:32:17;;;;;;;25.30;19.30;;;;;;;-2.30;78.59;97951.23;113253;1201;64385;-81
2021/04/07 02:34:44;;;;;;;34.60;21.20;;;;;;;-2.32;78.53;97947.80;113312;1202;64321;-82
2021/04/07 02:37:12;;;;;;;33.05;21.65;;;;;;;-2.35;78.46;97950.52;113329;1203;64471;-83
2021/04/07 02:39:39;;;;;;;32.70;22.33;;;;;;;-2.38;78.62;97950.63;113308;1203;64430;-83
2021/04/07 02:42:07;;;;;;;35.70;23.20;;;;;;;-2.40;78.47;97955.03;113352;1203;64378;-83
2021/04/07 02:44:35;;;;;;;31.10;20.65;;;;;;;-2.41;78.88;97967.22;113476;1203;64413;-81
2021/04/07 02:47:02;;;;;;;30.93;20.27;;;;;;;-2.42;78.66;97968.14;113511;1203;64423;-81
2021/04/07 02:49:29;;;;;;;28.40;18.85;;;;;;;-2.41;78.93;97962.00;113737;1203;64391;-82
2021/04/07 02:51:56;;;;;;;31.93;20.93;;;;;;;-2.42;78.67;97970.75;113659;1203;64381;-82
2021/04/07 02:54:23;;;;;;;28.30;22.03;;;;;;;-2.38;79.11;97969.73;113600;1203;64366;-82
2021/04/07 02:56:50;;;;;;;29.57;22.80;;;;;;;-2.37;79.23;97966.24;113353;1203;64330;-83
2021/04/07 02:59:17;;;;;;;28.50;19.60;;;;;;;-2.38;78.99;97971.49;113322;1203;64375;-81
2021/04/07 03:01:44;;;;;;;30.90;21.30;;;;;;;-2.38;78.75;97984.54;113367;1202;64483;-81
2021/04/07 03:04:11;;;;;;;31.30;19.30;;;;;;;-2.36;79.11;97980.98;113328;1203;64397;-81
2021/04/07 03:06:37;;;;;;;30.80;22.10;;;;;;;-2.38;79.12;97985.38;113383;1202;64382;-82
2021/04/07 03:09:05;;;;;;;28.05;22.10;;;;;;;-2.36;78.99;97994.03;113438;1203;64387;-82
2021/04/07 03:11:32;;;;;;;37.20;26.60;;;;;;;-2.32;79.02;97992.16;113331;1203;64497;-84
2021/04/07 03:13:58;;;;;;;38.10;26.77;;;;;;;-2.27;79.06;97995.48;113317;1203;64381;-82
2021/04/07 03:16:25;;;;;;;34.53;23.63;;;;;;;-2.25;79.06;97997.14;113475;1203;64491;-83
2021/04/07 03:18:51;;;;;;;32.10;26.05;;;;;;;-2.24;78.98;97992.77;113499;1202;64416;-82
2021/04/07 03:21:18;;;;;;;34.90;26.45;;;;;;;-2.17;79.00;97993.45;113411;1203;64387;-83
2021/04/07 03:23:44;;;;;;;37.65;26.30;;;;;;;-2.10;79.14;98002.80;113305;1203;64423;-83
2021/04/07 03:26:11;;;;;;;36.75;23.55;;;;;;;-2.03;79.08;98007.77;113394;1202;64567;-82
2021/04/07 03:28:37;;;;;;;35.50;23.15;;;;;;;-1.98;79.03;98004.99;113423;1202;64397;-84
2021/04/07 03:31:05;;;;;;;38.05;25.25;;;;;;;-1.90;78.91;98007.36;113496;1203;64436;-82
2021/04/07 03:33:34;;;;;;;30.73;21.37;;;;;;;-1.85;79.00;98006.30;113438;1203;64381;-82
2021/04/07 03:36:07;;;;;;;30.37;23.63;;;;;;;-1.79;78.79;98003.50;113412;1203;64365;-82
2021/04/07 03:38:34;;;;;;;30.53;19.70;;;;;;;-1.72;78.92;98011.13;113468;1203;64397;-81
2021/04/07 03:41:02;;;;;;;28.83;18.77;;;;;;;-1.70;78.76;98010.17;113335;1202;64404;-82
2021/04/07 03:43:29;;;;;;;23.10;16.55;;;;;;;-1.65;78.73;98010.02;113292;1203;64468;-81
2021/04/07 03:45:57;;;;;;;25.90;17.15;;;;;;;-1.60;78.59;98010.72;113302;1203;64311;-81
2021/04/07 03:48:29;;;;;;;25.00;17.77;;;;;;;-1.57;79.00;98006.23;113331;1203;64414;-82
2021/04/07 03:50:57;;;;;;;23.60;16.40;;;;;;;-1.52;78.77;98013.92;113291;1203;64529;-81
2021/04/07 03:53:25;;;;;;;24.20;17.60;;;;;;;-1.48;78.92;98018.13;113364;1202;64394;-83
2021/04/07 03:55:54;;;;;;;21.70;16.45;;;;;;;-1.43;78.61;98017.97;113342;1202;64391;-82
2021/04/07 03:58:21;;;;;;;35.48;20.05;;;;;;;-1.41;78.66;98017.02;113283;1203;64461;-83
2021/04/07 04:00:49;;;;;;;28.13;19.57;;;;;;;-1.38;78.58;98016.05;113370;1203;64394;-83
2021/04/07 04:03:15;;;;;;;27.85;18.90;;;;;;;-1.36;78.49;98028.16;113312;1203;64622;-83
2021/04/07 04:05:44;;;;;;;24.45;17.05;;;;;;;-1.33;78.56;98024.59;113296;1203;64452;-82
2021/04/07 04:08:10;;;;;;;24.05;15.25;;;;;;;-1.31;78.65;98027.17;113674;1202;64416;-82
2021/04/07 04:10:37;;;;;;;21.90;14.80;;;;;;;-1.27;78.51;98026.14;113630;1203;64478;-83
2021/04/07 04:13:06;;;;;;;21.60;15.80;;;;;;;-1.24;78.54;98032.09;113327;1202;64384;-83
2021/04/07 04:15:33;;;;;;;24.20;14.80;;;;;;;-1.20;78.34;98027.64;113279;1203;64519;-83
2021/04/07 04:18:01;;;;;;;23.00;15.90;;;;;;;-1.17;78.44;98030.98;113330;1203;64427;-83
2021/04/07 04:20:27;;;;;;;23.00;15.80;;;;;;;-1.12;78.07;98033.45;113267;1203;64368;-83
2021/04/07 04:22:54;;;;;;;21.65;14.85;;;;;;;-1.09;78.43;98035.95;113267;1202;64391;-83
2021/04/07 04:25:23;;;;;;;19.60;13.60;;;;;;;-1.06;78.47;98029.75;113256;1203;64353;-83
2021/04/07 04:27:50;;;;;;;21.15;15.10;;;;;;;-1.01;78.52;98033.06;113373;1202;64321;-83
2021/04/07 04:30:19;;;;;;;21.20;14.90;;;;;;;-0.97;78.27;98037.28;113262;1202;64609;-82
2021/04/07 04:32:46;;;;;;;24.93;15.83;;;;;;;-0.93;78.30;98038.86;113293;1203;64416;-82
2021/04/07 04:35:14;;;;;;;21.35;16.50;;;;;;;-0.89;78.31;98043.94;113313;1203;64423;-83
2021/04/07 04:37:41;;;;;;;25.20;16.85;;;;;;;-0.84;78.49;98048.13;113367;1203;64493;-83
2021/04/07 04:40:10;;;;;;;24.33;17.90;;;;;;;-0.82;78.07;98049.78;113283;1202;64391;-81
2021/04/07 04:42:37;;;;;;;27.55;19.30;;;;;;;-0.78;78.16;98048.78;113318;1202;64394;-83
2021/04/07 04:45:08;;;;;;;31.30;20.70;;;;;;;-0.74;78.13;98055.62;113330;1202;64574;-82
2021/04/07 04:47:50;;;;;;;28.53;19.43;;;;;;;-0.67;77.91;98054.46;113518;1203;64391;-93
2021/04/07 04:50:17;;;;;;;29.20;19.80;;;;;;;-0.61;77.90;98058.61;118759;1169;63237;-88
2021/04/07 04:52:43;;;;;;;57.10;27.30;;;;;;;-0.56;77.66;98066.30;113539;1202;64416;-82
2021/04/07 04:55:10;;;;;;;40.17;22.30;;;;;;;-0.52;77.58;98071.38;113384;1203;64391;-84
2021/04/07 04:57:37;;;;;;;43.50;23.95;;;;;;;-0.47;77.69;98079.06;113303;1202;64423;-83
2021/04/07 05:00:06;;;;;;;31.43;19.33;;;;;;;-0.40;77.38;98077.89;113250;1203;64439;-83
2021/04/07 05:02:33;;;;;;;26.60;18.00;;;;;;;-0.32;77.29;98082.84;113423;1203;64375;-83
2021/04/07 05:04:59;;;;;;;27.30;17.47;;;;;;;-0.24;77.18;98072.93;113285;1202;64416;-83
2021/04/07 05:07:26;;;;;;;24.60;17.90;;;;;;;-0.15;77.00;98069.98;113257;1203;64473;-83
2021/04/07 05:09:52;;;;;;;22.35;16.55;;;;;;;-0.04;76.89;98080.03;113322;1203;64401;-83
2021/04/07 05:12:19;;;;;;;20.95;16.20;;;;;;;0.05;76.88;98071.80;113284;1202;64499;-84
2021/04/07 05:14:48;;;;;;;19.60;15.15;;;;;;;0.13;76.60;98071.50;113342;1203;64478;-84
2021/04/07 05:17:14;;;;;;;16.37;12.27;;;;;;;0.17;76.20;98076.56;113427;1203;64390;-84
2021/04/07 05:19:41;;;;;;;18.80;13.70;;;;;;;0.23;76.29;98075.46;113361;1202;64391;-82
2021/04/07 05:22:08;;;;;;;21.50;15.20;;;;;;;0.32;76.22;98080.35;113415;1203;64401;-84
2021/04/07 05:24:34;;;;;;;19.83;15.80;;;;;;;0.40;76.19;98085.28;113377;1202;64394;-83
2021/04/07 05:27:01;;;;;;;25.95;17.75;;;;;;;0.51;76.47;98080.45;113478;1203;64490;-82
2021/04/07 05:29:28;;;;;;;24.03;19.17;;;;;;;0.61;75.75;98081.78;113369;1203;64468;-82
2021/04/07 05:31:56;;;;;;;23.85;17.60;;;;;;;0.72;75.44;98085.73;113372;1202;64391;-82
2021/04/07 05:34:23;;;;;;;20.80;14.80;;;;;;;0.81;74.97;98080.92;113388;1202;64503;-82
2021/04/07 05:36:49;;;;;;;18.20;14.55;;;;;;;1.07;74.55;98092.09;113305;1202;64388;-83
2021/04/07 05:39:16;;;;;;;21.00;14.50;;;;;;;1.24;75.00;98088.75;113229;1203;64321;-82
2021/04/07 05:41:43;;;;;;;18.30;13.85;;;;;;;1.40;73.94;98088.92;113287;1203;64525;-83
2021/04/07 05:44:09;;;;;;;17.90;14.20;;;;;;;1.55;73.73;98088.22;113465;1202;64430;-83
2021/04/07 05:46:36;;;;;;;18.50;14.45;;;;;;;1.75;73.71;98093.42;113527;1202;64388;-83
2021/04/07 05:49:03;;;;;;;17.10;14.77;;;;;;;1.82;73.46;98095.75;113542;1203;64417;-83
2021/04/07 05:51:30;;;;;;;18.23;14.43;;;;;;;1.84;73.16;98102.64;113383;1202;64323;-83
2021/04/07 05:53:58;;;;;;;17.30;13.07;;;;;;;1.82;73.02;98099.27;113397;1203;64365;-83
2021/04/07 05:56:24;;;;;;;14.97;12.67;;;;;;;1.74;73.10;98106.64;113429;1203;64496;-83
2021/04/07 05:58:51;;;;;;;15.90;12.30;;;;;;;1.71;73.18;98112.89;113398;1202;64395;-83
2021/04/07 06:01:18;;;;;;;15.57;12.43;;;;;;;1.73;72.95;98110.17;113360;1202;64356;-82
2021/04/07 06:03:46;;;;;;;15.33;13.10;;;;;;;1.71;73.32;98118.14;113341;1203;64410;-82
2021/04/07 06:06:13;;;;;;;17.40;14.00;;;;;;;1.68;73.27;98120.03;113301;1203;64500;-86
2021/04/07 06:08:40;;;;;;;15.50;13.50;;;;;;;1.69;73.43;98127.01;113416;1202;64451;-81
2021/04/07 06:11:06;;;;;;;17.30;13.25;;;;;;;1.73;73.46;98124.15;113375;1203;64398;-82
2021/04/07 06:13:33;;;;;;;17.47;13.57;;;;;;;1.78;73.20;98126.58;113479;1203;64391;-83
2021/04/07 06:15:59;;;;;;;17.43;14.23;;;;;;;1.82;73.17;98122.91;113367;1203;64388;-83
2021/04/07 06:18:27;;;;;;;18.80;14.50;;;;;;;1.91;73.20;98126.88;113439;1203;65039;-83
2021/04/07 06:20:53;;;;;;;19.70;16.40;;;;;;;2.03;73.05;98128.95;113356;1202;64545;-83
2021/04/07 06:23:21;;;;;;;20.80;16.25;;;;;;;2.16;72.76;98124.82;113454;1203;64353;-83
2021/04/07 06:25:47;;;;;;;19.40;15.90;;;;;;;2.33;72.26;98126.64;113270;1202;64391;-83
2021/04/07 06:28:16;;;;;;;20.50;15.27;;;;;;;2.40;72.14;98130.69;113244;1202;64407;-82
2021/04/07 06:30:44;;;;;;;18.30;16.40;;;;;;;2.39;72.04;98136.01;113430;1202;64385;-83
2021/04/07 06:33:20;;;;;;;19.85;16.75;;;;;;;2.36;72.10;98126.49;113329;1202;64455;-83
2021/04/07 06:35:52;;;;;;;20.00;16.50;;;;;;;2.33;72.47;98134.53;113289;1203;64316;-82
2021/04/07 06:38:20;;;;;;;19.30;17.20;;;;;;;2.30;72.59;98133.83;113303;1203;64314;-82
2021/04/07 06:40:49;;;;;;;19.70;16.70;;;;;;;2.37;72.47;98135.22;113289;1203;64346;-82
2021/04/07 06:43:25;;;;;;;19.50;14.85;;;;;;;2.51;72.37;98124.06;113374;1202;64420;-81
2021/04/07 06:45:52;;;;;;;18.90;16.10;;;;;;;2.64;72.05;98135.70;113215;1203;64525;-81
2021/04/07 06:48:20;;;;;;;18.33;14.57;;;;;;;2.76;72.33;98134.23;113299;1203;64362;-82
2021/04/07 06:50:50;;;;;;;19.75;15.75;;;;;;;2.80;72.09;98141.91;113433;1203;64362;-82
2021/04/07 06:53:19;;;;;;;17.45;15.55;;;;;;;2.81;71.86;98142.75;113379;1202;64484;-82
2021/04/07 06:55:46;;;;;;;18.57;15.83;;;;;;;2.78;71.52;98145.54;113337;1203;64503;-82
2021/04/07 06:58:13;;;;;;;17.00;14.80;;;;;;;2.89;71.25;98145.01;113319;1202;64375;-82
2021/04/07 07:00:42;;;;;;;17.85;15.60;;;;;;;2.92;71.16;98145.70;113343;1203;64499;-81
2021/04/07 07:03:16;;;;;;;18.47;15.03;;;;;;;2.83;70.86;98149.64;113382;1203;64318;-82
2021/04/07 07:05:48;;;;;;;22.60;17.20;;;;;;;2.77;71.15;98143.84;113349;1203;64382;-81
2021/04/07 07:08:18;;;;;;;20.30;18.10;;;;;;;2.80;71.65;98149.80;113385;1203;64481;-82
2021/04/07 07:10:47;;;;;;;;;;;;;;;2.83;71.25;98144.38;113405;1209;64391;-81
2021/04/07 07:13:22;;;;;;;17.13;14.80;;;;;;;2.93;71.31;98142.16;113293;1202;64452;-81
2021/04/07 07:15:50;;;;;;;19.67;15.23;;;;;;;3.08;71.51;98140.52;113370;1203;64420;-81
2021/04/07 07:18:24;;;;;;;17.55;14.20;;;;;;;3.19;70.70;98143.48;113371;1203;64380;-83
2021/04/07 07:20:52;;;;;;;17.75;13.45;;;;;;;3.29;70.57;98147.36;113357;1203;64427;-82
2021/04/07 07:23:24;;;;;;;15.10;13.10;;;;;;;3.47;70.21;98153.44;113309;1203;64404;-81
2021/04/07 07:26:00;;;;;;;18.15;14.00;;;;;;;3.72;70.21;98149.55;113259;1203;64404;-82
2021/04/07 07:28:38;;;;;;;15.65;13.00;;;;;;;3.98;68.45;98158.70;113253;1203;64458;-81
2021/04/07 07:31:29;;;;;;;14.37;11.53;;;;;;;4.49;68.42;98150.66;113336;1203;64388;-81
2021/04/07 07:33:58;;;;;;;17.90;13.45;;;;;;;4.52;66.57;98153.95;113382;1202;64393;-82
2021/04/07 07:36:27;;;;;;;16.07;12.80;;;;;;;4.28;67.54;98163.23;113231;1203;65775;-83
2021/04/07 07:38:56;;;;;;;15.17;13.33;;;;;;;4.07;67.22;98160.83;113219;1203;64425;-82
2021/04/07 07:41:27;;;;;;;17.07;14.40;;;;;;;4.13;68.19;98167.55;113291;1203;64404;-81
2021/04/07 07:43:54;;;;;;;18.80;15.45;;;;;;;4.16;67.90;98177.92;113422;1203;64508;-81
2021/04/07 07:46:26;;;;;;;20.95;16.00;;;;;;;4.27;67.96;98170.30;113392;1202;64534;-81
2021/04/07 07:48:53;;;;;;;20.70;18.50;;;;;;;4.37;67.70;98171.51;113300;1203;64478;-81
2021/04/07 07:51:22;;;;;;;24.00;18.97;;;;;;;4.50;67.86;98170.81;113278;1203;64417;-81
2021/04/07 07:53:51;;;;;;;23.35;18.15;;;;;;;4.71;67.33;98169.61;113339;1203;64477;-82
2021/04/07 07:56:21;;;;;;;23.73;17.57;;;;;;;4.92;67.10;98167.53;113308;1203;64427;-82
2021/04/07 07:58:50;;;;;;;17.40;15.10;;;;;;;5.30;66.42;98171.56;113323;1202;64397;-81
2021/04/07 08:01:19;;;;;;;16.15;14.40;;;;;;;5.68;66.18;98172.75;113377;1203;64508;-81
2021/04/07 08:03:48;;;;;;;18.00;14.90;;;;;;;5.85;65.90;98178.84;113328;1203;64391;-81
2021/04/07 08:06:16;;;;;;;16.25;13.90;;;;;;;5.89;64.04;98175.05;113253;1203;64334;-82
2021/04/07 08:08:43;;;;;;;18.90;16.30;;;;;;;5.54;64.03;98185.11;113282;1203;64359;-82
2021/04/07 08:11:10;;;;;;;14.60;11.20;;;;;;;5.22;63.63;98190.50;113232;1202;64413;-81
2021/04/07 08:13:38;;;;;;;16.80;13.40;;;;;;;4.92;63.16;98186.02;113267;1203;64481;-81
2021/04/07 08:16:09;;;;;;;15.95;12.25;;;;;;;4.85;63.98;98189.97;113369;1203;64497;-81
2021/04/07 08:18:37;;;;;;;16.00;12.40;;;;;;;4.88;64.04;98196.86;113302;1203;64510;-81
2021/04/07 08:21:04;;;;;;;16.75;13.25;;;;;;;4.81;63.58;98197.19;113352;1203;64385;-82
2021/04/07 08:23:32;;;;;;;16.55;12.55;;;;;;;4.99;63.12;98190.02;113239;1203;64419;-81
2021/04/07 08:26:00;;;;;;;13.30;11.90;;;;;;;5.33;63.00;98189.87;113345;1202;64372;-81
2021/04/07 08:28:29;;;;;;;16.07;13.93;;;;;;;5.49;62.44;98194.15;113302;1203;64947;-82
2021/04/07 08:30:56;;;;;;;18.10;15.70;;;;;;;5.38;63.31;98191.30;113386;1203;64830;-82
2021/04/07 08:33:23;;;;;;;18.17;15.17;;;;;;;5.22;63.71;98190.50;113309;1203;64473;-81
2021/04/07 08:35:53;;;;;;;16.20;14.50;;;;;;;5.20;63.67;98201.14;113305;1203;64503;-82
2021/04/07 08:38:33;;;;;;;16.65;14.50;;;;;;;5.17;63.51;98197.83;113394;1203;64510;-81
2021/04/07 08:41:18;;;;;;;16.90;13.00;;;;;;;5.22;62.71;98196.63;113269;1203;64458;-81
2021/04/07 08:43:45;;;;;;;19.55;15.35;;;;;;;5.18;62.77;98192.45;113345;1203;64381;-81
2021/04/07 08:46:19;;;;;;;20.10;15.70;;;;;;;5.00;62.99;98191.73;113367;1203;64493;-82
2021/04/07 08:48:46;;;;;;;19.10;15.15;;;;;;;4.72;62.98;98204.80;113259;1203;64503;-82
2021/04/07 08:51:16;;;;;;;18.20;15.50;;;;;;;4.44;63.70;98202.81;113247;1203;64403;-81
2021/04/07 08:53:48;;;;;;;20.30;15.50;;;;;;;4.15;63.17;98213.16;113387;1203;64564;-82
2021/04/07 08:56:34;;;;;;;18.40;14.10;;;;;;;3.96;63.75;98213.28;113404;1202;64751;-82
2021/04/07 08:59:03;;;;;;;19.05;14.50;;;;;;;3.85;64.08;98213.84;113374;1203;64374;-83
2021/04/07 09:01:29;;;;;;;17.80;13.40;;;;;;;3.93;64.15;98213.45;113372;1202;64327;-84
2021/04/07 09:04:09;;;;;;;19.93;15.73;;;;;;;4.11;64.06;98204.56;113354;1203;64448;-84
2021/04/07 09:06:37;;;;;;;21.73;14.83;;;;;;;4.33;64.21;98206.89;113282;1203;64391;-82
2021/04/07 09:09:05;;;;;;;21.15;13.65;;;;;;;4.38;62.42;98211.92;113389;1202;64513;-81
2021/04/07 09:11:36;;;;;;;19.97;13.87;;;;;;;4.29;62.24;98207.13;113387;1203;64391;-81
2021/04/07 09:14:04;;;;;;;21.55;15.55;;;;;;;4.30;62.43;98219.41;113288;1203;64458;-82
2021/04/07 09:16:41;;;;;;;17.30;14.23;;;;;;;4.37;62.29;98202.28;113390;1203;64519;-81
2021/04/07 09:19:23;;;;;;;17.95;14.65;;;;;;;4.49;61.46;98216.61;113314;1203;64426;-82
2021/04/07 09:22:07;;;;;;;17.85;13.15;;;;;;;4.65;62.15;98213.98;113244;1202;64359;-82
2021/04/07 09:24:41;;;;;;;21.25;15.30;;;;;;;4.81;61.01;98206.91;113242;1203;64391;-82
2021/04/07 09:27:27;;;;;;;21.35;14.50;;;;;;;4.91;61.97;98221.29;113324;1203;64500;-82
2021/04/07 09:30:03;;;;;;;19.25;15.50;;;;;;;5.04;62.58;98208.25;113358;1203;64362;-81
2021/04/07 09:32:38;;;;;;;22.00;16.20;;;;;;;5.23;62.87;98200.11;113364;1202;64331;-81
2021/04/07 09:35:12;;;;;;;20.30;15.65;;;;;;;5.35;62.64;98202.05;113270;1202;64382;-82
2021/04/07 09:37:40;;;;;;;22.50;16.20;;;;;;;5.48;62.68;98199.55;113276;1202;64320;-82
2021/04/07 09:40:17;;;;;;;21.05;16.65;;;;;;;5.71;61.96;98192.86;113430;1203;64432;-81
2021/04/07 09:42:46;;;;;;;21.20;15.20;;;;;;;5.83;61.47;98193.94;113397;1203;64365;-83
2021/04/07 09:45:22;;;;;;;19.40;14.40;;;;;;;5.96;60.96;98196.72;113294;1203;64320;-80
2021/04/07 09:47:56;;;;;;;16.50;13.10;;;;;;;5.92;60.59;98202.17;113295;1202;64510;-81
2021/04/07 09:50:32;;;;;;;16.10;13.25;;;;;;;5.68;59.64;98207.11;113382;1202;64367;-81
2021/04/07 09:52:59;;;;;;;11.30;8.30;;;;;;;5.21;60.00;98215.19;113433;1203;64519;-81
2021/04/07 09:55:26;;;;;;;12.40;9.70;;;;;;;4.79;60.11;98221.97;113331;1203;64790;-82
2021/04/07 09:58:01;;;;;;;13.80;10.55;;;;;;;4.40;60.24;98233.80;113249;1203;64382;-82
2021/04/07 10:00:33;;;;;;;11.40;7.90;;;;;;;3.98;60.88;98235.15;113296;1203;64398;-81
2021/04/07 10:03:02;;;;;;;12.07;8.43;;;;;;;3.78;61.74;98243.23;113367;1203;64362;-82
2021/04/07 10:05:32;;;;;;;10.60;8.73;;;;;;;3.81;62.16;98236.01;113276;1203;64423;-81
2021/04/07 10:08:26;;;;;;;11.80;8.70;;;;;;;3.90;62.30;98242.61;113304;1203;64506;-82
2021/04/07 10:10:54;;;;;;;14.90;8.40;;;;;;;3.92;62.81;98233.69;113321;1203;64476;-81
2021/04/07 10:13:22;;;;;;;9.97;7.33;;;;;;;3.81;63.27;98237.80;113299;1203;64317;-82
2021/04/07 10:15:48;;;;;;;10.55;7.70;;;;;;;3.88;63.64;98228.66;113262;1203;64397;-81
2021/04/07 10:18:18;;;;;;;14.90;10.60;;;;;;;4.25;64.35;98218.80;113197;1202;64359;-82
2021/04/07 10:20:44;;;;;;;10.98;8.48;;;;;;;4.72;64.50;98212.71;113259;1202;64401;-81
2021/04/07 10:23:17;;;;;;;10.90;8.00;;;;;;;5.15;63.25;98210.27;113294;1202;64388;-81
2021/04/07 10:25:43;;;;;;;10.30;8.00;;;;;;;5.41;61.71;98206.12;113337;1203;64356;-81
2021/04/07 10:28:19;;;;;;;9.45;6.70;;;;;;;5.73;61.04;98209.49;113329;1202;64420;-81
2021/04/07 10:30:46;;;;;;;9.20;6.93;;;;;;;6.07;61.55;98212.78;113272;1202;64474;-81
2021/04/07 10:33:13;;;;;;;6.20;5.60;;;;;;;6.08;59.61;98211.82;113341;1203;64477;-81
2021/04/07 10:35:40;;;;;;;10.60;7.15;;;;;;;5.81;57.46;98216.97;113306;1202;64422;-82
2021/04/07 10:38:12;;;;;;;7.35;5.40;;;;;;;5.30;55.32;98225.24;113309;1203;64317;-82
2021/04/07 10:40:41;;;;;;;5.70;3.60;;;;;;;4.42;57.41;98252.17;113310;1203;64449;-81
2021/04/07 10:43:19;;;;;;;10.40;5.90;;;;;;;3.82;60.20;98252.67;113299;1203;64580;-81
2021/04/07 10:46:07;;;;;;;11.10;7.30;;;;;;;3.59;60.57;98267.88;113359;1203;64391;-81
2021/04/07 10:48:35;;;;;;;14.30;9.00;;;;;;;3.51;61.72;98281.44;113330;1203;64375;-80
2021/04/07 10:51:02;;;;;;;11.40;7.95;;;;;;;3.38;61.91;98276.86;113461;1203;64378;-81
2021/04/07 10:53:37;;;;;;;11.65;8.20;;;;;;;3.13;62.54;98293.83;113458;1203;64429;-82
2021/04/07 10:56:18;;;;;;;5.97;5.37;;;;;;;2.90;63.33;98294.07;113436;1203;64410;-82
2021/04/07 10:59:02;;;;;;;7.50;6.30;;;;;;;2.74;64.76;98294.81;113359;1202;64454;-81
2021/04/07 11:01:31;;;;;;;11.20;8.90;;;;;;;2.95;65.08;98295.59;113358;1203;64398;-81
2021/04/07 11:04:08;;;;;;;8.97;7.80;;;;;;;3.43;65.14;98293.29;113413;1203;64487;-82
2021/04/07 11:06:35;;;;;;;8.57;7.27;;;;;;;3.92;65.08;98301.34;113346;1202;64317;-82
2021/04/07 11:09:03;;;;;;;8.30;6.30;;;;;;;3.70;66.47;98296.33;113279;1203;64478;-82
2021/04/07 11:11:29;;;;;;;6.50;5.80;;;;;;;3.29;66.08;98299.20;113322;1202;64426;-81
2021/04/07 11:13:57;;;;;;;4.85;4.20;;;;;;;3.13;66.13;98283.30;113297;1203;64394;-82
2021/04/07 11:16:31;;;;;;;4.95;4.55;;;;;;;3.10;66.48;98277.34;113408;1203;64394;-82
2021/04/07 11:18:58;;;;;;;6.03;5.20;;;;;;;3.17;66.36;98269.08;113355;1203;64429;-82
2021/04/07 11:21:26;;;;;;;6.85;5.65;;;;;;;3.26;67.10;98268.61;113333;1203;64397;-81
2021/04/07 11:23:52;;;;;;;5.30;4.80;;;;;;;3.52;67.45;98263.84;113486;1203;64352;-82